Time;durP1;ratioP1;P1;durP2;ratioP2;P2;SDS_P1;SDS_P2;PMS_P1;PMS_P2;Temp;Humidity;BMP_temperature;BMP_pressure;BME280_temperature;BME280_humidity;BME280_pressure;Samples;Min_cycle;Max_cycle;Signal;HPM_P1;HPM_P2
2023/01/27 00:01:41;;;;;;;19.50;18.20;;;4.50;88.60;;;;;;5016109;28;20172;-87
2023/01/27 00:04:07;;;;;;;19.27;18.07;;;4.50;88.80;;;;;;5015717;28;20232;-88
2023/01/27 00:06:32;;;;;;;19.90;18.67;;;4.50;88.80;;;;;;5015703;28;20184;-89
2023/01/27 00:08:58;;;;;;;19.93;18.70;;;4.40;89.00;;;;;;5015732;28;20216;-90
2023/01/27 00:14:07;;;;;;;20.23;18.73;;;4.40;89.20;;;;;;5017314;28;20198;-88
2023/01/27 00:16:33;;;;;;;19.70;18.47;;;4.40;89.20;;;;;;5017000;28;20201;-90
2023/01/27 00:18:58;;;;;;;20.77;19.37;;;4.40;89.40;;;;;;5015692;28;20188;-88
2023/01/27 00:26:55;;;;;;;21.47;20.07;;;4.40;89.80;;;;;;5018915;28;20326;-90
2023/01/27 00:29:21;;;;;;;22.97;21.03;;;4.40;89.90;;;;;;5020793;28;20309;-89
2023/01/27 00:34:30;;;;;;;20.40;19.17;;;4.40;90.00;;;;;;5018076;28;20527;-91
2023/01/27 00:36:56;;;;;;;21.17;19.53;;;4.50;90.00;;;;;;5015226;28;20169;-90
2023/01/27 00:39:21;;;;;;;20.50;19.00;;;4.50;90.00;;;;;;5015296;28;20662;-90
2023/01/27 00:41:47;;;;;;;20.07;18.47;;;4.50;90.00;;;;;;5015045;28;20193;-90
2023/01/27 00:44:12;;;;;;;22.07;20.27;;;4.50;90.00;;;;;;5014895;28;20176;-90
2023/01/27 00:46:38;;;;;;;21.80;20.50;;;4.50;90.00;;;;;;5014874;28;20196;-90
2023/01/27 00:49:04;;;;;;;23.27;21.20;;;4.50;90.10;;;;;;5014834;28;20228;-90
2023/01/27 00:51:30;;;;;;;23.43;21.77;;;4.50;90.10;;;;;;5015897;28;20180;-90
2023/01/27 00:53:55;;;;;;;23.77;22.07;;;4.50;90.20;;;;;;5016053;28;20172;-90
2023/01/27 00:56:21;;;;;;;24.33;22.77;;;4.50;90.30;;;;;;5014739;28;20181;-90
2023/01/27 00:58:46;;;;;;;23.87;22.27;;;4.40;90.30;;;;;;5014801;28;20188;-90
2023/01/27 01:01:15;;;;;;;22.50;20.90;;;4.50;90.40;;;;;;5014500;28;20632;-90
2023/01/27 01:03:41;;;;;;;23.77;22.27;;;4.50;90.40;;;;;;5014925;28;20268;-90
2023/01/27 01:06:09;;;;;;;24.90;23.40;;;4.50;90.50;;;;;;5014820;28;20235;-90
2023/01/27 01:08:36;;;;;;;25.33;23.67;;;4.40;90.60;;;;;;5014589;28;20209;-90
2023/01/27 01:11:03;;;;;;;25.20;23.40;;;4.40;90.70;;;;;;5014195;28;20206;-90
2023/01/27 01:13:29;;;;;;;25.63;23.97;;;4.40;90.80;;;;;;5014555;28;20180;-90
2023/01/27 01:15:56;;;;;;;25.97;23.97;;;4.40;90.80;;;;;;5014725;28;20193;-90
2023/01/27 01:18:21;;;;;;;26.20;24.50;;;4.40;90.90;;;;;;5014410;28;20183;-89
2023/01/27 01:20:47;;;;;;;27.93;25.93;;;4.40;90.90;;;;;;5014508;28;20203;-90
2023/01/27 01:23:14;;;;;;;24.80;22.97;;;4.30;91.00;;;;;;5014359;28;20186;-91
2023/01/27 01:25:40;;;;;;;29.80;27.80;;;4.40;91.10;;;;;;5014297;28;20662;-90
2023/01/27 01:28:06;;;;;;;29.77;27.97;;;4.40;91.20;;;;;;5014164;28;20236;-91
2023/01/27 01:30:36;;;;;;;31.27;29.23;;;4.40;91.20;;;;;;5014611;28;20550;-91
2023/01/27 01:33:03;;;;;;;29.03;27.33;;;4.30;91.30;;;;;;5015403;28;20255;-91
2023/01/27 01:35:29;;;;;;;31.10;29.17;;;4.30;91.40;;;;;;5014170;28;20673;-90
2023/01/27 01:37:54;;;;;;;33.17;31.27;;;4.30;91.40;;;;;;5013835;28;20184;-90
2023/01/27 01:40:21;;;;;;;35.03;32.87;;;4.30;91.60;;;;;;5013792;28;20203;-90
2023/01/27 01:42:53;;;;;;;35.90;33.60;;;4.20;91.70;;;;;;5013938;28;20178;-91
2023/01/27 01:45:50;;;;;;;35.97;33.87;;;4.20;91.80;;;;;;5014186;28;20192;-90
2023/01/27 01:48:18;;;;;;;35.60;33.60;;;4.20;91.90;;;;;;5009065;28;20295;-90
2023/01/27 01:50:53;;;;;;;31.00;29.03;;;4.20;91.90;;;;;;5013940;28;20199;-90
2023/01/27 01:53:26;;;;;;;31.97;29.77;;;4.20;91.90;;;;;;5014368;28;20187;-90
2023/01/27 01:55:51;;;;;;;32.03;30.13;;;4.20;91.90;;;;;;5013786;28;20183;-90
2023/01/27 01:58:19;;;;;;;31.47;29.63;;;4.20;91.80;;;;;;5013512;28;20181;-89
2023/01/27 02:00:45;;;;;;;32.67;30.47;;;4.20;91.80;;;;;;5013377;28;20217;-90
2023/01/27 02:03:11;;;;;;;32.33;29.80;;;4.20;91.70;;;;;;5013404;28;20183;-90
2023/01/27 02:05:43;;;;;;;27.73;25.93;;;4.20;91.70;;;;;;5013424;28;20217;-90
2023/01/27 02:08:12;;;;;;;33.07;30.70;;;4.20;91.70;;;;;;5013326;28;20197;-91
2023/01/27 02:10:38;;;;;;;31.43;29.37;;;4.20;91.70;;;;;;5013167;28;20203;-90
2023/01/27 02:13:04;;;;;;;35.20;33.00;;;4.10;91.70;;;;;;5012682;28;20179;-90
2023/01/27 02:15:30;;;;;;;36.20;33.90;;;4.10;91.80;;;;;;5013577;28;20685;-90
2023/01/27 02:17:56;;;;;;;34.40;32.30;;;4.10;91.90;;;;;;5013164;28;20182;-89
2023/01/27 02:20:44;;;;;;;37.30;34.37;;;4.10;92.00;;;;;;5013325;28;20205;-90
2023/01/27 02:23:35;;;;;;;35.43;32.93;;;4.10;92.00;;;;;;5013044;28;20174;-90
2023/01/27 02:26:10;;;;;;;36.10;33.53;;;4.00;92.00;;;;;;5013095;28;20169;-90
2023/01/27 02:28:35;;;;;;;38.83;36.53;;;4.00;92.00;;;;;;5012875;28;20597;-90
2023/01/27 02:31:01;;;;;;;38.43;36.13;;;4.00;92.00;;;;;;5013388;28;20253;-90
2023/01/27 02:33:27;;;;;;;38.20;35.70;;;4.00;92.10;;;;;;5014391;28;20539;-90
2023/01/27 02:36:07;;;;;;;38.43;35.60;;;4.00;92.10;;;;;;5012996;28;20604;-90
2023/01/27 02:38:39;;;;;;;37.73;35.13;;;4.00;92.10;;;;;;5012986;28;20217;-90
2023/01/27 02:41:28;;;;;;;37.07;34.87;;;4.00;92.10;;;;;;5012728;28;20209;-90
2023/01/27 02:43:55;;;;;;;36.73;34.33;;;4.00;92.20;;;;;;5012767;28;20183;-90
2023/01/27 02:46:20;;;;;;;40.60;37.90;;;4.00;92.20;;;;;;5012726;28;20195;-90
2023/01/27 02:48:46;;;;;;;39.80;37.17;;;4.00;92.20;;;;;;5012578;28;20208;-90
2023/01/27 02:51:12;;;;;;;39.40;36.93;;;4.00;92.30;;;;;;5012881;28;20214;-91
2023/01/27 02:53:38;;;;;;;37.37;35.07;;;4.00;92.30;;;;;;5012919;28;20552;-91
2023/01/27 02:56:04;;;;;;;40.77;38.07;;;4.00;92.40;;;;;;5013829;28;20226;-91
2023/01/27 02:58:29;;;;;;;38.97;36.57;;;3.90;92.40;;;;;;5013064;28;20529;-90
2023/01/27 03:00:55;;;;;;;42.77;40.27;;;3.90;92.40;;;;;;5012261;28;20213;-90
2023/01/27 03:03:21;;;;;;;42.20;39.40;;;3.90;92.40;;;;;;5012479;28;20184;-90
2023/01/27 03:05:46;;;;;;;44.40;41.47;;;3.90;92.50;;;;;;5013903;28;20182;-90
2023/01/27 03:08:12;;;;;;;46.50;43.27;;;3.90;92.50;;;;;;5013075;28;20197;-90
2023/01/27 03:10:38;;;;;;;46.83;43.37;;;3.90;92.50;;;;;;5012366;28;20214;-90
2023/01/27 03:13:03;;;;;;;44.63;41.87;;;3.90;92.60;;;;;;5012378;28;20181;-90
2023/01/27 03:18:14;;;;;;;47.80;44.87;;;3.80;92.70;;;;;;5014116;28;20173;-90
2023/01/27 03:20:42;;;;;;;49.03;45.97;;;3.80;92.70;;;;;;5012164;28;20203;-91
2023/01/27 03:23:07;;;;;;;49.63;46.63;;;3.80;92.80;;;;;;5012404;28;20717;-90
2023/01/27 03:25:33;;;;;;;52.27;49.10;;;3.80;92.80;;;;;;5016076;28;20256;-89
2023/01/27 03:27:59;;;;;;;58.77;54.97;;;3.80;92.90;;;;;;5016770;28;20201;-90
2023/01/27 03:30:25;;;;;;;59.03;55.17;;;3.80;93.00;;;;;;5018910;28;20249;-90
2023/01/27 03:32:51;;;;;;;56.20;52.43;;;3.80;93.10;;;;;;5016579;28;20177;-90
2023/01/27 03:35:16;;;;;;;57.87;54.17;;;3.80;93.20;;;;;;5016354;28;20284;-91
2023/01/27 03:48:40;;;;;;;58.40;54.80;;;3.70;93.40;;;;;;5017494;28;20204;-90
2023/01/27 03:51:08;;;;;;;61.97;58.07;;;3.70;93.50;;;;;;5016204;28;20574;-90
2023/01/27 03:53:34;;;;;;;65.33;61.13;;;3.70;93.50;;;;;;5016143;28;20561;-90
2023/01/27 03:56:00;;;;;;;60.87;57.27;;;3.70;93.50;;;;;;5016872;28;20255;-90
2023/01/27 03:58:28;;;;;;;60.83;57.03;;;3.70;93.60;;;;;;5015940;28;20188;-90
2023/01/27 04:01:25;;;;;;;64.43;60.23;;;3.70;93.60;;;;;;5051551;22;20228;-86
2023/01/27 04:06:53;;;;;;;60.43;56.93;;;3.70;93.60;;;;;;5036915;28;20163;-86
2023/01/27 04:09:32;;;;;;;58.40;54.90;;;3.70;93.60;;;;;;5034977;28;20197;-85
2023/01/27 04:12:00;;;;;;;55.87;52.57;;;3.70;93.70;;;;;;5016538;28;20750;-85
2023/01/27 04:14:42;;;;;;;58.27;54.73;;;3.70;93.70;;;;;;5016404;28;20171;-85
2023/01/27 04:17:13;;;;;;;57.90;54.00;;;3.70;93.70;;;;;;5015160;28;20311;-86
2023/01/27 04:19:39;;;;;;;53.67;50.37;;;3.70;93.60;;;;;;5016492;28;20168;-86
2023/01/27 04:22:05;;;;;;;54.90;51.30;;;3.70;93.60;;;;;;5016292;28;20544;-86
2023/01/27 04:24:31;;;;;;;54.87;51.40;;;3.70;93.60;;;;;;5014996;28;20175;-86
2023/01/27 04:27:06;;;;;;;56.47;52.83;;;3.70;93.50;;;;;;5016472;28;20639;-86
2023/01/27 04:29:33;;;;;;;56.67;53.17;;;3.70;93.50;;;;;;5014807;28;20204;-86
2023/01/27 04:31:59;;;;;;;54.60;51.33;;;3.70;93.50;;;;;;5014851;28;20176;-86
2023/01/27 04:34:26;;;;;;;56.67;53.30;;;3.70;93.50;;;;;;5016350;28;20226;-86
2023/01/27 04:36:52;;;;;;;54.57;51.23;;;3.70;93.50;;;;;;5015260;28;20168;-86
2023/01/27 04:39:18;;;;;;;55.07;51.63;;;3.70;93.50;;;;;;5014729;28;20268;-86
2023/01/27 04:41:44;;;;;;;52.57;49.50;;;3.70;93.50;;;;;;5015683;28;20699;-86
2023/01/27 04:44:10;;;;;;;51.83;48.80;;;3.70;93.50;;;;;;5014639;28;20181;-85
2023/01/27 04:46:36;;;;;;;48.40;45.20;;;3.70;93.40;;;;;;5014810;28;20654;-85
2023/01/27 04:49:02;;;;;;;47.57;44.47;;;3.70;93.40;;;;;;5014384;28;20209;-85
2023/01/27 04:51:28;;;;;;;42.83;40.23;;;3.70;93.30;;;;;;5015629;28;20245;-85
2023/01/27 04:53:54;;;;;;;40.63;38.13;;;3.70;93.10;;;;;;5014428;28;20186;-85
2023/01/27 04:56:29;;;;;;;42.47;39.87;;;3.70;93.00;;;;;;5015762;28;20651;-85
2023/01/27 04:59:02;;;;;;;38.27;35.90;;;3.70;93.00;;;;;;5014362;28;20292;-85
2023/01/27 05:01:28;;;;;;;40.00;37.47;;;3.70;92.80;;;;;;5014101;28;20242;-85
2023/01/27 05:03:54;;;;;;;39.53;36.90;;;3.70;92.80;;;;;;5014272;28;20277;-85
2023/01/27 05:06:20;;;;;;;41.23;38.83;;;3.70;92.70;;;;;;5014207;28;20183;-85
2023/01/27 05:08:46;;;;;;;39.73;37.23;;;3.70;92.70;;;;;;5015656;28;20190;-85
2023/01/27 05:11:11;;;;;;;41.13;38.53;;;3.70;92.70;;;;;;5014074;28;20195;-85
2023/01/27 05:13:37;;;;;;;39.37;36.80;;;3.70;92.70;;;;;;5014312;28;20174;-85
2023/01/27 05:16:05;;;;;;;39.20;36.80;;;3.70;92.60;;;;;;5015249;28;20536;-85
2023/01/27 05:18:31;;;;;;;38.57;36.07;;;3.70;92.60;;;;;;5015446;28;20180;-85
2023/01/27 05:21:00;;;;;;;38.47;36.07;;;3.70;92.50;;;;;;5013804;28;20200;-86
2023/01/27 05:23:35;;;;;;;34.80;32.80;;;3.70;92.50;;;;;;5013894;28;20180;-85
2023/01/27 05:26:07;;;;;;;33.03;31.13;;;3.70;92.40;;;;;;5015213;28;20261;-86
2023/01/27 05:28:33;;;;;;;33.50;31.50;;;3.70;92.30;;;;;;5015239;28;20203;-86
2023/01/27 05:31:01;;;;;;;31.90;29.93;;;3.70;92.20;;;;;;5013734;28;20226;-85
2023/01/27 05:33:26;;;;;;;33.13;31.20;;;3.70;92.20;;;;;;5013703;28;20537;-85
2023/01/27 05:35:52;;;;;;;32.77;30.57;;;3.60;92.20;;;;;;5015112;28;20206;-85
2023/01/27 05:38:17;;;;;;;30.17;28.27;;;3.70;92.10;;;;;;5013607;28;20178;-86
2023/01/27 05:40:43;;;;;;;30.97;29.13;;;3.60;92.10;;;;;;5014751;28;20189;-86
2023/01/27 05:43:09;;;;;;;28.23;26.53;;;3.60;91.90;;;;;;5013532;28;20174;-86
2023/01/27 05:45:34;;;;;;;18.90;17.90;;;3.60;91.80;;;;;;5013491;28;20570;-85
2023/01/27 05:48:00;;;;;;;20.13;18.97;;;3.50;91.20;;;;;;5012402;28;20272;-85
2023/01/27 05:50:25;;;;;;;20.47;19.37;;;3.60;90.90;;;;;;5014563;28;20202;-86
2023/01/27 05:52:51;;;;;;;22.30;21.00;;;3.60;90.80;;;;;;5014922;28;20178;-86
2023/01/27 05:55:16;;;;;;;21.33;20.13;;;3.60;90.90;;;;;;5014904;28;20174;-86
2023/01/27 05:57:42;;;;;;;18.47;17.47;;;3.60;90.80;;;;;;5014578;28;20208;-86
2023/01/27 06:00:08;;;;;;;20.50;19.10;;;3.60;90.40;;;;;;5014315;28;20217;-86
2023/01/27 06:02:33;;;;;;;19.20;18.10;;;3.50;90.30;;;;;;5014786;28;20219;-86
2023/01/27 06:04:59;;;;;;;20.70;19.50;;;3.40;90.30;;;;;;5013122;28;20173;-85
2023/01/27 06:07:24;;;;;;;21.40;20.20;;;3.40;90.40;;;;;;5012971;28;20219;-85
2023/01/27 06:09:50;;;;;;;23.47;22.13;;;3.30;90.60;;;;;;5014664;28;20691;-85
2023/01/27 06:12:15;;;;;;;24.00;22.60;;;3.30;90.80;;;;;;5014256;28;20184;-85
2023/01/27 06:14:41;;;;;;;27.73;26.17;;;3.30;91.00;;;;;;5012916;28;20177;-85
2023/01/27 06:17:06;;;;;;;27.63;26.13;;;3.30;91.10;;;;;;5014479;28;20176;-85
2023/01/27 06:19:32;;;;;;;31.93;30.13;;;3.30;91.40;;;;;;5013947;28;20174;-85
2023/01/27 06:21:57;;;;;;;30.97;29.17;;;3.30;91.60;;;;;;5014135;28;20233;-85
2023/01/27 06:24:23;;;;;;;29.60;27.70;;;3.30;91.80;;;;;;5012793;28;20752;-86
2023/01/27 06:26:48;;;;;;;30.90;29.10;;;3.30;91.80;;;;;;5014041;28;20178;-86
2023/01/27 06:29:14;;;;;;;34.80;32.80;;;3.30;91.90;;;;;;5013867;28;20296;-86
2023/01/27 06:31:39;;;;;;;33.83;31.87;;;3.30;92.10;;;;;;5013969;28;20193;-87
2023/01/27 06:34:05;;;;;;;37.27;35.10;;;3.30;92.20;;;;;;5013915;28;20202;-86
2023/01/27 06:36:30;;;;;;;38.07;35.77;;;3.30;92.30;;;;;;5012702;28;20166;-86
2023/01/27 06:38:56;;;;;;;38.93;36.73;;;3.30;92.30;;;;;;5012649;28;20174;-86
2023/01/27 06:41:21;;;;;;;38.57;36.17;;;3.30;92.40;;;;;;5012511;28;20204;-86
2023/01/27 06:43:47;;;;;;;37.90;35.63;;;3.30;92.40;;;;;;5014034;28;20546;-86
2023/01/27 06:46:13;;;;;;;36.50;34.30;;;3.30;92.40;;;;;;5012462;28;20185;-86
2023/01/27 06:48:39;;;;;;;38.33;35.73;;;3.30;92.40;;;;;;5012450;28;20197;-86
2023/01/27 06:51:05;;;;;;;39.07;36.83;;;3.30;92.40;;;;;;5013759;28;20208;-86
2023/01/27 06:53:31;;;;;;;40.07;37.57;;;3.30;92.50;;;;;;5013873;28;20192;-86
2023/01/27 06:55:58;;;;;;;42.30;39.63;;;3.30;92.50;;;;;;5012325;28;20662;-86
2023/01/27 06:58:24;;;;;;;43.57;40.83;;;3.30;92.60;;;;;;5012054;28;20651;-86
2023/01/27 07:00:50;;;;;;;44.63;41.93;;;3.30;92.60;;;;;;5011919;28;20234;-86
2023/01/27 07:03:16;;;;;;;47.40;44.60;;;3.30;92.70;;;;;;5013503;28;20579;-87
2023/01/27 07:05:42;;;;;;;46.50;43.50;;;3.30;92.70;;;;;;5012298;28;20189;-87
2023/01/27 07:08:07;;;;;;;46.13;43.47;;;3.20;92.70;;;;;;5012199;28;20208;-87
2023/01/27 07:10:34;;;;;;;48.60;45.57;;;3.20;92.80;;;;;;5012482;28;20272;-86
2023/01/27 07:13:07;;;;;;;50.97;48.07;;;3.30;92.90;;;;;;5012125;28;20268;-86
2023/01/27 07:15:33;;;;;;;54.47;51.17;;;3.30;92.90;;;;;;5013426;28;20170;-86
2023/01/27 07:18:02;;;;;;;55.80;52.20;;;3.20;93.00;;;;;;5013337;28;20179;-86
2023/01/27 07:20:29;;;;;;;56.23;52.57;;;3.30;93.10;;;;;;5011978;28;20206;-86
2023/01/27 07:22:59;;;;;;;57.90;54.30;;;3.30;93.10;;;;;;5012314;28;20182;-86
2023/01/27 07:25:25;;;;;;;57.73;54.17;;;3.20;93.20;;;;;;5012694;28;20631;-87
2023/01/27 07:27:51;;;;;;;64.93;61.07;;;3.20;93.30;;;;;;5012097;28;20213;-87
2023/01/27 07:30:18;;;;;;;63.97;60.17;;;3.10;93.40;;;;;;5011902;28;20559;-87
2023/01/27 07:32:43;;;;;;;65.57;61.57;;;3.10;93.50;;;;;;5012125;28;20185;-88
2023/01/27 07:35:09;;;;;;;67.33;63.30;;;3.10;93.50;;;;;;5013222;28;20171;-87
2023/01/27 07:37:34;;;;;;;66.00;61.97;;;3.20;93.60;;;;;;5012095;28;20181;-86
2023/01/27 07:40:00;;;;;;;64.20;60.50;;;3.10;93.70;;;;;;5011934;28;20609;-86
2023/01/27 07:42:25;;;;;;;63.73;59.93;;;3.10;93.70;;;;;;5013110;28;20309;-87
2023/01/27 07:44:51;;;;;;;62.20;58.60;;;3.10;93.70;;;;;;5013513;28;20583;-86
2023/01/27 07:47:16;;;;;;;55.83;52.57;;;3.00;93.70;;;;;;5013028;28;20180;-86
2023/01/27 07:49:42;;;;;;;52.40;49.40;;;3.00;93.70;;;;;;5012514;28;20205;-86
2023/01/27 07:52:07;;;;;;;57.13;53.63;;;3.00;93.70;;;;;;5011830;28;20192;-86
2023/01/27 07:54:33;;;;;;;58.10;54.80;;;3.00;93.70;;;;;;5011837;28;20181;-86
2023/01/27 07:57:00;;;;;;;55.47;52.27;;;3.00;93.60;;;;;;5011871;28;20232;-86
2023/01/27 07:59:25;;;;;;;58.50;54.87;;;3.00;93.60;;;;;;5011870;28;20719;-86
2023/01/27 08:01:51;;;;;;;59.97;56.53;;;2.90;93.60;;;;;;5012346;28;20252;-86
2023/01/27 08:04:17;;;;;;;55.50;52.33;;;3.00;93.70;;;;;;5012498;28;20624;-85
2023/01/27 08:06:42;;;;;;;63.43;59.53;;;3.00;93.60;;;;;;5012325;28;20276;-86
2023/01/27 08:09:08;;;;;;;62.83;58.93;;;3.00;93.70;;;;;;5013423;28;20208;-86
2023/01/27 08:11:34;;;;;;;64.60;60.83;;;3.00;93.70;;;;;;5017376;28;20264;-86
2023/01/27 08:14:00;;;;;;;66.13;61.93;;;3.00;93.70;;;;;;5019768;28;20204;-86
2023/01/27 08:16:25;;;;;;;64.03;60.23;;;3.10;93.80;;;;;;5018686;28;20213;-86
2023/01/27 08:18:52;;;;;;;68.67;64.57;;;3.10;93.70;;;;;;5016673;28;20644;-85
2023/01/27 08:21:18;;;;;;;67.03;62.73;;;3.10;93.80;;;;;;5014961;28;20336;-85
2023/01/27 08:23:44;;;;;;;66.23;62.23;;;3.10;93.80;;;;;;5015034;28;20272;-86
2023/01/27 08:26:09;;;;;;;62.03;58.40;;;3.20;93.80;;;;;;5015100;28;20182;-85
2023/01/27 08:28:37;;;;;;;61.60;57.67;;;3.10;93.70;;;;;;5015002;28;20212;-85
2023/01/27 08:31:10;;;;;;;65.20;61.10;;;3.20;93.80;;;;;;5016164;28;20197;-86
2023/01/27 08:33:37;;;;;;;63.23;59.03;;;3.20;93.80;;;;;;5017635;28;20177;-86
2023/01/27 08:36:09;;;;;;;61.53;58.03;;;3.20;93.80;;;;;;5021750;28;20158;-86
2023/01/27 08:38:36;;;;;;;65.70;61.83;;;3.20;93.70;;;;;;5018150;28;20697;-86
2023/01/27 08:41:22;;;;;;;65.73;61.63;;;3.30;93.80;;;;;;5014942;28;20201;-86
2023/01/27 08:43:47;;;;;;;69.17;65.07;;;3.30;93.70;;;;;;5016142;28;20161;-86
2023/01/27 08:46:14;;;;;;;65.37;61.57;;;3.30;93.70;;;;;;5018403;28;20250;-86
2023/01/27 08:48:40;;;;;;;62.57;58.90;;;3.30;93.70;;;;;;5014534;28;20297;-85
2023/01/27 08:51:07;;;;;;;61.90;58.13;;;3.30;93.70;;;;;;5017695;28;20190;-86
2023/01/27 08:53:33;;;;;;;54.90;51.67;;;3.30;93.70;;;;;;5016160;28;20169;-85
2023/01/27 08:56:04;;;;;;;49.60;46.70;;;3.30;93.60;;;;;;5014444;28;20169;-85
2023/01/27 08:58:29;;;;;;;48.93;46.03;;;3.30;93.50;;;;;;5015675;28;20169;-85
2023/01/27 09:00:59;;;;;;;44.30;41.60;;;3.30;93.30;;;;;;5014104;28;20210;-86
2023/01/27 09:03:25;;;;;;;34.67;32.77;;;3.40;93.30;;;;;;5014788;28;20515;-85
2023/01/27 09:05:50;;;;;;;36.40;34.20;;;3.30;92.80;;;;;;5015833;28;20172;-85
2023/01/27 09:08:16;;;;;;;35.17;33.13;;;3.30;92.60;;;;;;5015511;28;20203;-85
2023/01/27 09:10:42;;;;;;;32.00;30.03;;;3.30;92.50;;;;;;5014175;28;20201;-85
2023/01/27 09:13:08;;;;;;;31.60;29.67;;;3.30;92.30;;;;;;5014150;28;20174;-85
2023/01/27 09:15:35;;;;;;;28.37;26.43;;;3.30;92.20;;;;;;5015767;28;20227;-85
2023/01/27 09:18:01;;;;;;;28.63;26.93;;;3.30;91.90;;;;;;5015117;28;20177;-85
2023/01/27 09:20:27;;;;;;;28.40;26.70;;;3.30;91.80;;;;;;5016915;28;20579;-85
2023/01/27 09:22:54;;;;;;;27.70;25.90;;;3.40;91.60;;;;;;5014409;28;20186;-86
2023/01/27 09:25:20;;;;;;;26.00;24.53;;;3.40;91.50;;;;;;5016035;28;20170;-86
2023/01/27 09:27:46;;;;;;;25.10;23.60;;;3.40;91.60;;;;;;5013883;28;20205;-85
2023/01/27 09:30:13;;;;;;;27.47;25.83;;;3.40;91.40;;;;;;5015248;28;20196;-85
2023/01/27 09:32:39;;;;;;;26.97;25.37;;;3.40;91.30;;;;;;5015128;28;20655;-84
2023/01/27 09:35:05;;;;;;;27.87;26.17;;;3.40;91.30;;;;;;5015688;28;20175;-85
2023/01/27 09:37:38;;;;;;;26.30;24.77;;;3.40;91.40;;;;;;5015324;28;20177;-85
2023/01/27 09:40:11;;;;;;;24.70;23.20;;;3.50;91.30;;;;;;5015047;28;20193;-85
2023/01/27 09:43:03;;;;;;;23.90;22.50;;;3.50;91.20;;;;;;5013842;28;20269;-85
2023/01/27 09:45:44;;;;;;;21.53;20.33;;;3.50;91.00;;;;;;5013615;28;20224;-85
2023/01/27 09:48:35;;;;;;;19.93;18.83;;;3.50;90.80;;;;;;5013687;28;20224;-87
2023/01/27 09:51:16;;;;;;;20.13;18.77;;;3.60;90.50;;;;;;5014821;28;20198;-87
2023/01/27 09:54:06;;;;;;;17.00;16.00;;;3.60;90.10;;;;;;5014675;28;20194;-87
2023/01/27 09:56:54;;;;;;;14.97;14.17;;;3.60;89.70;;;;;;5014711;28;20162;-85
2023/01/27 09:59:55;;;;;;;15.80;14.80;;;3.70;89.60;;;;;;5013182;28;20167;-85
2023/01/27 10:02:32;;;;;;;14.67;13.77;;;3.60;89.20;;;;;;5014978;28;20168;-85
2023/01/27 10:05:12;;;;;;;16.20;15.20;;;3.60;89.00;;;;;;5013208;28;20639;-86
2023/01/27 10:07:56;;;;;;;15.40;14.60;;;3.60;89.10;;;;;;5013195;28;20166;-85
2023/01/27 10:10:39;;;;;;;16.10;15.20;;;3.60;89.00;;;;;;5013220;28;20193;-85
2023/01/27 10:13:27;;;;;;;16.67;15.57;;;3.60;89.00;;;;;;5014430;28;20166;-85
2023/01/27 10:16:04;;;;;;;16.30;15.20;;;3.70;89.00;;;;;;5013220;28;20645;-87
2023/01/27 10:19:00;;;;;;;16.30;15.40;;;3.70;89.10;;;;;;5013137;28;20211;-85
2023/01/27 10:21:47;;;;;;;16.40;15.50;;;3.70;89.40;;;;;;5012962;28;20605;-85
2023/01/27 10:24:39;;;;;;;17.23;16.23;;;3.70;89.30;;;;;;5014793;28;20193;-85
2023/01/27 10:27:16;;;;;;;17.30;16.27;;;3.80;89.50;;;;;;5013052;28;20594;-85
2023/01/27 10:29:50;;;;;;;17.30;16.30;;;3.80;89.50;;;;;;5012774;28;20194;-85
2023/01/27 10:32:28;;;;;;;15.83;14.90;;;3.90;89.60;;;;;;5014351;28;20162;-85
2023/01/27 10:35:12;;;;;;;18.07;16.97;;;3.90;89.20;;;;;;5012131;28;20185;-85
2023/01/27 10:38:06;;;;;;;15.60;14.70;;;3.90;89.40;;;;;;5012987;28;20169;-84
2023/01/27 10:40:47;;;;;;;14.60;13.80;;;3.70;88.90;;;;;;5014018;28;20189;-85
2023/01/27 10:43:47;;;;;;;15.13;13.90;;;3.60;88.70;;;;;;5012792;28;20173;-85
2023/01/27 10:46:38;;;;;;;15.10;14.20;;;3.50;89.10;;;;;;5012661;28;20165;-85
2023/01/27 10:49:21;;;;;;;17.00;15.83;;;3.40;89.00;;;;;;5014043;28;20185;-85
2023/01/27 10:52:10;;;;;;;13.57;12.87;;;3.50;89.20;;;;;;5013931;28;20233;-85
2023/01/27 10:54:52;;;;;;;15.37;14.30;;;3.50;88.60;;;;;;5012661;28;20546;-85
2023/01/27 10:57:46;;;;;;;12.80;12.00;;;3.70;88.80;;;;;;5012623;28;20177;-84
2023/01/27 11:00:44;;;;;;;10.57;9.97;;;3.60;88.10;;;;;;5013419;28;20220;-83
2023/01/27 11:03:20;;;;;;;11.23;10.60;;;3.60;86.80;;;;;;5013616;28;20181;-83
2023/01/27 11:05:50;;;;;;;11.07;10.17;;;3.60;86.70;;;;;;5013736;28;20154;-83
2023/01/27 11:08:19;;;;;;;11.50;10.90;;;3.50;85.50;;;;;;5013789;28;20649;-84
2023/01/27 11:13:37;;;;;;;11.60;10.90;;;3.40;85.10;;;;;;5014550;28;20521;-84
2023/01/27 11:16:05;;;;;;;12.30;11.20;;;3.40;84.80;;;;;;5013177;28;20192;-84
2023/01/27 11:18:34;;;;;;;12.20;11.40;;;3.40;85.00;;;;;;5012112;28;20727;-84
2023/01/27 11:21:11;;;;;;;11.60;11.00;;;3.30;85.20;;;;;;5012020;28;20200;-84
2023/01/27 11:23:45;;;;;;;12.33;11.47;;;3.30;84.80;;;;;;5012054;28;20605;-84
2023/01/27 11:26:37;;;;;;;11.67;10.27;;;3.40;85.40;;;;;;5013370;28;20696;-83
2023/01/27 11:29:22;;;;;;;11.10;10.50;;;3.30;84.40;;;;;;5013239;28;20190;-84
2023/01/27 11:32:25;;;;;;;10.67;10.07;;;3.30;84.60;;;;;;5013277;28;20227;-84
2023/01/27 11:34:51;;;;;;;10.40;9.90;;;3.30;84.40;;;;;;5012014;28;20180;-84
2023/01/27 11:37:32;;;;;;;11.67;10.97;;;3.30;84.20;;;;;;5011933;28;20191;-84
2023/01/27 11:39:57;;;;;;;10.87;10.27;;;3.30;84.10;;;;;;5013068;28;20664;-84
2023/01/27 11:42:30;;;;;;;11.30;10.70;;;3.30;84.00;;;;;;5013160;28;20174;-85
2023/01/27 11:44:57;;;;;;;11.40;10.40;;;3.30;83.80;;;;;;5014305;28;20157;-84
2023/01/27 11:47:26;;;;;;;11.50;10.70;;;3.30;83.60;;;;;;5015866;28;20137;-85
2023/01/27 11:49:53;;;;;;;12.13;11.20;;;3.30;84.30;;;;;;5016092;28;20262;-85
2023/01/27 11:52:22;;;;;;;12.23;11.40;;;3.40;84.30;;;;;;5017063;28;20289;-84
2023/01/27 11:55:12;;;;;;;11.07;10.40;;;3.40;85.00;;;;;;5018986;28;20171;-85
2023/01/27 11:57:41;;;;;;;11.37;10.77;;;3.40;84.40;;;;;;5021811;28;20607;-85
2023/01/27 12:00:30;;;;;;;10.90;10.30;;;3.40;84.70;;;;;;5021343;28;20217;-85
2023/01/27 12:03:33;;;;;;;11.03;10.23;;;3.30;83.30;;;;;;5020340;28;20632;-85
2023/01/27 12:06:04;;;;;;;12.17;11.37;;;3.30;83.00;;;;;;5020457;28;20194;-85
2023/01/27 12:08:36;;;;;;;11.13;10.53;;;3.30;82.70;;;;;;5020047;28;20165;-85
2023/01/27 12:11:23;;;;;;;11.50;10.87;;;3.30;82.70;;;;;;5017516;28;20296;-85
2023/01/27 12:13:52;;;;;;;10.83;10.23;;;3.30;82.70;;;;;;5018777;28;20527;-85
2023/01/27 12:16:18;;;;;;;11.73;11.03;;;3.40;82.40;;;;;;5017204;28;20182;-85
2023/01/27 12:18:59;;;;;;;11.63;10.90;;;3.40;82.50;;;;;;5017088;28;20632;-85
2023/01/27 12:21:35;;;;;;;11.13;10.53;;;3.60;83.60;;;;;;5016889;28;20348;-84
2023/01/27 12:24:01;;;;;;;11.40;10.70;;;3.50;82.10;;;;;;5016346;28;20578;-83
2023/01/27 12:26:39;;;;;;;11.33;10.63;;;3.40;82.20;;;;;;5015034;28;20184;-85
2023/01/27 12:29:17;;;;;;;11.27;10.47;;;3.40;82.30;;;;;;5015291;28;20296;-85
2023/01/27 12:31:47;;;;;;;10.70;10.10;;;3.30;82.70;;;;;;5015330;28;20204;-85
2023/01/27 12:34:25;;;;;;;11.47;10.77;;;3.40;83.20;;;;;;5016417;28;20169;-85
2023/01/27 12:36:52;;;;;;;10.27;9.43;;;3.40;83.10;;;;;;5016474;28;20208;-85
2023/01/27 12:39:39;;;;;;;11.43;10.77;;;3.40;82.70;;;;;;5015340;28;20181;-85
2023/01/27 12:42:04;;;;;;;11.13;10.27;;;3.40;82.40;;;;;;5015096;28;20182;-85
2023/01/27 12:44:43;;;;;;;12.13;11.43;;;3.30;81.60;;;;;;5014955;28;20650;-85
2023/01/27 12:47:25;;;;;;;11.90;11.17;;;3.40;82.70;;;;;;5016166;28;20169;-85
2023/01/27 12:49:50;;;;;;;11.70;10.60;;;3.30;81.40;;;;;;5016027;28;20213;-85
2023/01/27 12:52:19;;;;;;;11.40;10.80;;;3.30;81.50;;;;;;5016034;28;20173;-85
2023/01/27 12:54:45;;;;;;;11.13;10.43;;;3.40;82.10;;;;;;5014969;28;20217;-85
2023/01/27 12:57:17;;;;;;;11.60;10.60;;;3.40;81.90;;;;;;5015605;28;20297;-85
2023/01/27 12:59:51;;;;;;;11.27;10.57;;;3.40;81.70;;;;;;5014534;28;20206;-85
2023/01/27 13:02:31;;;;;;;10.90;10.30;;;3.40;81.80;;;;;;5016407;28;20574;-85
2023/01/27 13:05:00;;;;;;;11.50;10.80;;;3.40;82.10;;;;;;5016033;28;20177;-85
2023/01/27 13:07:29;;;;;;;11.03;10.43;;;3.40;81.60;;;;;;5015992;28;20190;-85
2023/01/27 13:09:59;;;;;;;11.10;10.30;;;3.40;81.60;;;;;;5014510;28;20216;-85
2023/01/27 13:12:27;;;;;;;11.00;10.30;;;3.50;81.80;;;;;;5014528;28;20188;-85
2023/01/27 13:15:18;;;;;;;11.43;10.73;;;3.50;81.50;;;;;;5015819;28;20232;-85
2023/01/27 13:17:47;;;;;;;10.67;10.10;;;3.50;81.50;;;;;;5015326;28;20194;-85
2023/01/27 13:20:24;;;;;;;11.60;10.90;;;3.50;81.40;;;;;;5014387;28;20208;-85
2023/01/27 13:22:55;;;;;;;11.40;10.70;;;3.50;82.10;;;;;;5014473;28;20169;-85
2023/01/27 13:25:25;;;;;;;12.30;11.20;;;3.50;82.00;;;;;;5015595;28;20200;-85